sensor_id;sensor_type;location;lat;lon;timestamp;temperature;humidity
53599;DHT22;39485;45.702;11.364;2023-06-24T00:01:39;22.60;66.10
53599;DHT22;39485;45.702;11.364;2023-06-24T00:04:05;22.70;65.30
53599;DHT22;39485;45.702;11.364;2023-06-24T00:06:30;22.80;65.20
53599;DHT22;39485;45.702;11.364;2023-06-24T00:08:56;22.80;65.50
53599;DHT22;39485;45.702;11.364;2023-06-24T00:11:29;22.80;64.60
53599;DHT22;39485;45.702;11.364;2023-06-24T00:13:55;22.90;64.60
53599;DHT22;39485;45.702;11.364;2023-06-24T00:16:22;22.90;64.40
53599;DHT22;39485;45.702;11.364;2023-06-24T00:18:55;22.80;63.90
53599;DHT22;39485;45.702;11.364;2023-06-24T00:21:26;22.90;63.90
53599;DHT22;39485;45.702;11.364;2023-06-24T00:23:59;22.90;63.90
53599;DHT22;39485;45.702;11.364;2023-06-24T00:26:27;22.90;64.00
53599;DHT22;39485;45.702;11.364;2023-06-24T00:28:53;22.90;64.20
53599;DHT22;39485;45.702;11.364;2023-06-24T00:31:19;22.90;64.70
53599;DHT22;39485;45.702;11.364;2023-06-24T00:33:46;22.80;65.10
53599;DHT22;39485;45.702;11.364;2023-06-24T00:36:11;22.70;65.40
53599;DHT22;39485;45.702;11.364;2023-06-24T00:38:40;22.50;65.10
53599;DHT22;39485;45.702;11.364;2023-06-24T00:41:06;22.60;62.70
53599;DHT22;39485;45.702;11.364;2023-06-24T00:43:32;22.70;62.20
53599;DHT22;39485;45.702;11.364;2023-06-24T00:46:00;22.80;61.90
53599;DHT22;39485;45.702;11.364;2023-06-24T00:48:25;22.90;61.90
53599;DHT22;39485;45.702;11.364;2023-06-24T00:50:51;23.00;62.40
53599;DHT22;39485;45.702;11.364;2023-06-24T00:53:18;23.00;62.90
53599;DHT22;39485;45.702;11.364;2023-06-24T00:55:45;22.90;63.20
53599;DHT22;39485;45.702;11.364;2023-06-24T00:58:12;22.80;63.20
53599;DHT22;39485;45.702;11.364;2023-06-24T01:00:45;22.80;63.40
53599;DHT22;39485;45.702;11.364;2023-06-24T01:03:12;22.80;63.90
53599;DHT22;39485;45.702;11.364;2023-06-24T01:05:43;22.80;64.20
53599;DHT22;39485;45.702;11.364;2023-06-24T01:08:10;22.70;64.30
53599;DHT22;39485;45.702;11.364;2023-06-24T01:10:41;22.60;64.30
53599;DHT22;39485;45.702;11.364;2023-06-24T01:13:07;22.60;64.40
53599;DHT22;39485;45.702;11.364;2023-06-24T01:15:34;22.50;64.10
53599;DHT22;39485;45.702;11.364;2023-06-24T01:18:25;22.50;64.60
53599;DHT22;39485;45.702;11.364;2023-06-24T01:21:03;22.50;63.70
53599;DHT22;39485;45.702;11.364;2023-06-24T01:31:44;22.80;60.70
53599;DHT22;39485;45.702;11.364;2023-06-24T01:37:24;23.00;60.10
53599;DHT22;39485;45.702;11.364;2023-06-24T01:40:19;23.10;59.90
53599;DHT22;39485;45.702;11.364;2023-06-24T01:42:46;23.20;59.50
53599;DHT22;39485;45.702;11.364;2023-06-24T01:45:16;23.20;59.00
53599;DHT22;39485;45.702;11.364;2023-06-24T01:47:45;23.30;59.00
53599;DHT22;39485;45.702;11.364;2023-06-24T01:50:13;23.30;59.10
53599;DHT22;39485;45.702;11.364;2023-06-24T01:52:44;23.30;58.20
53599;DHT22;39485;45.702;11.364;2023-06-24T01:55:15;23.40;56.70
53599;DHT22;39485;45.702;11.364;2023-06-24T01:57:44;23.50;56.60
53599;DHT22;39485;45.702;11.364;2023-06-24T02:00:12;23.70;56.10
53599;DHT22;39485;45.702;11.364;2023-06-24T02:02:39;23.80;55.30
53599;DHT22;39485;45.702;11.364;2023-06-24T02:05:06;23.90;54.70
53599;DHT22;39485;45.702;11.364;2023-06-24T02:07:33;24.00;54.70
53599;DHT22;39485;45.702;11.364;2023-06-24T02:10:00;24.10;54.70
53599;DHT22;39485;45.702;11.364;2023-06-24T02:12:27;24.10;54.90
53599;DHT22;39485;45.702;11.364;2023-06-24T02:14:55;24.10;54.80
53599;DHT22;39485;45.702;11.364;2023-06-24T02:17:24;24.10;54.90
53599;DHT22;39485;45.702;11.364;2023-06-24T02:19:51;24.10;55.50
53599;DHT22;39485;45.702;11.364;2023-06-24T02:22:18;24.00;55.40
53599;DHT22;39485;45.702;11.364;2023-06-24T02:24:44;24.00;55.40
53599;DHT22;39485;45.702;11.364;2023-06-24T02:27:11;23.90;55.30
53599;DHT22;39485;45.702;11.364;2023-06-24T02:29:39;23.90;55.10
53599;DHT22;39485;45.702;11.364;2023-06-24T02:32:06;23.90;55.10
53599;DHT22;39485;45.702;11.364;2023-06-24T02:34:32;23.90;55.20
53599;DHT22;39485;45.702;11.364;2023-06-24T02:36:57;23.80;55.30
53599;DHT22;39485;45.702;11.364;2023-06-24T02:39:23;23.80;55.20
53599;DHT22;39485;45.702;11.364;2023-06-24T02:41:49;23.80;55.30
53599;DHT22;39485;45.702;11.364;2023-06-24T02:44:15;23.80;55.30
53599;DHT22;39485;45.702;11.364;2023-06-24T02:46:42;23.70;55.20
53599;DHT22;39485;45.702;11.364;2023-06-24T02:49:10;23.70;55.10
53599;DHT22;39485;45.702;11.364;2023-06-24T02:51:39;23.70;55.10
53599;DHT22;39485;45.702;11.364;2023-06-24T02:54:06;23.70;55.30
53599;DHT22;39485;45.702;11.364;2023-06-24T02:56:32;23.70;55.60
53599;DHT22;39485;45.702;11.364;2023-06-24T02:58:58;23.60;55.60
53599;DHT22;39485;45.702;11.364;2023-06-24T03:01:25;23.60;55.60
53599;DHT22;39485;45.702;11.364;2023-06-24T03:03:56;23.50;55.90
53599;DHT22;39485;45.702;11.364;2023-06-24T03:06:22;23.50;56.60
53599;DHT22;39485;45.702;11.364;2023-06-24T03:08:49;23.40;56.70
53599;DHT22;39485;45.702;11.364;2023-06-24T03:11:15;23.30;57.10
53599;DHT22;39485;45.702;11.364;2023-06-24T03:13:42;23.20;57.20
53599;DHT22;39485;45.702;11.364;2023-06-24T03:16:08;23.10;57.70
53599;DHT22;39485;45.702;11.364;2023-06-24T03:18:40;23.00;58.10
53599;DHT22;39485;45.702;11.364;2023-06-24T03:21:06;22.90;58.70
53599;DHT22;39485;45.702;11.364;2023-06-24T03:23:31;22.80;58.80
53599;DHT22;39485;45.702;11.364;2023-06-24T03:25:57;22.70;58.90
53599;DHT22;39485;45.702;11.364;2023-06-24T03:28:23;22.70;59.10
53599;DHT22;39485;45.702;11.364;2023-06-24T03:30:49;22.60;59.10
53599;DHT22;39485;45.702;11.364;2023-06-24T03:33:14;22.60;59.10
53599;DHT22;39485;45.702;11.364;2023-06-24T03:35:42;22.60;59.40
53599;DHT22;39485;45.702;11.364;2023-06-24T03:38:08;22.60;59.70
53599;DHT22;39485;45.702;11.364;2023-06-24T03:40:34;22.60;60.00
53599;DHT22;39485;45.702;11.364;2023-06-24T03:43:00;22.50;60.60
53599;DHT22;39485;45.702;11.364;2023-06-24T03:45:25;22.40;61.10
53599;DHT22;39485;45.702;11.364;2023-06-24T03:47:51;22.40;61.90
53599;DHT22;39485;45.702;11.364;2023-06-24T03:50:17;22.30;62.40
53599;DHT22;39485;45.702;11.364;2023-06-24T03:52:43;22.20;62.80
53599;DHT22;39485;45.702;11.364;2023-06-24T03:55:10;22.10;62.80
53599;DHT22;39485;45.702;11.364;2023-06-24T03:57:37;22.00;62.80
53599;DHT22;39485;45.702;11.364;2023-06-24T04:00:03;22.00;63.10
53599;DHT22;39485;45.702;11.364;2023-06-24T04:02:41;22.00;63.70
53599;DHT22;39485;45.702;11.364;2023-06-24T04:05:08;21.90;64.40
53599;DHT22;39485;45.702;11.364;2023-06-24T04:07:34;21.90;64.90
53599;DHT22;39485;45.702;11.364;2023-06-24T04:10:02;21.80;65.50
53599;DHT22;39485;45.702;11.364;2023-06-24T04:12:29;21.80;66.30
53599;DHT22;39485;45.702;11.364;2023-06-24T04:14:55;21.70;66.50
53599;DHT22;39485;45.702;11.364;2023-06-24T04:17:21;21.60;66.70
53599;DHT22;39485;45.702;11.364;2023-06-24T04:19:46;21.60;66.40
53599;DHT22;39485;45.702;11.364;2023-06-24T04:22:12;21.60;66.40
53599;DHT22;39485;45.702;11.364;2023-06-24T04:24:38;21.60;67.10
53599;DHT22;39485;45.702;11.364;2023-06-24T04:27:05;21.60;67.70
53599;DHT22;39485;45.702;11.364;2023-06-24T04:29:31;21.60;68.50
53599;DHT22;39485;45.702;11.364;2023-06-24T04:31:56;21.70;69.20
53599;DHT22;39485;45.702;11.364;2023-06-24T04:34:22;21.60;69.60
53599;DHT22;39485;45.702;11.364;2023-06-24T04:36:48;21.60;70.20
53599;DHT22;39485;45.702;11.364;2023-06-24T04:39:13;21.60;70.50
53599;DHT22;39485;45.702;11.364;2023-06-24T04:41:39;21.60;71.30
53599;DHT22;39485;45.702;11.364;2023-06-24T04:44:05;21.60;71.70
53599;DHT22;39485;45.702;11.364;2023-06-24T04:46:31;21.50;72.30
53599;DHT22;39485;45.702;11.364;2023-06-24T04:48:58;21.50;72.60
53599;DHT22;39485;45.702;11.364;2023-06-24T04:51:23;21.60;73.20
53599;DHT22;39485;45.702;11.364;2023-06-24T04:53:49;21.60;73.40
53599;DHT22;39485;45.702;11.364;2023-06-24T04:56:15;21.60;73.80
53599;DHT22;39485;45.702;11.364;2023-06-24T04:58:40;21.80;74.60
53599;DHT22;39485;45.702;11.364;2023-06-24T05:01:06;22.00;74.90
53599;DHT22;39485;45.702;11.364;2023-06-24T05:03:32;22.10;75.10
53599;DHT22;39485;45.702;11.364;2023-06-24T05:05:57;22.10;75.30
53599;DHT22;39485;45.702;11.364;2023-06-24T05:08:23;22.20;75.50
53599;DHT22;39485;45.702;11.364;2023-06-24T05:10:48;22.30;75.50
53599;DHT22;39485;45.702;11.364;2023-06-24T05:13:14;22.30;75.10
53599;DHT22;39485;45.702;11.364;2023-06-24T05:15:40;22.30;75.50
53599;DHT22;39485;45.702;11.364;2023-06-24T05:18:06;22.40;75.50
53599;DHT22;39485;45.702;11.364;2023-06-24T05:20:32;22.40;75.70
53599;DHT22;39485;45.702;11.364;2023-06-24T05:22:57;22.50;76.10
53599;DHT22;39485;45.702;11.364;2023-06-24T05:25:23;22.50;75.90
53599;DHT22;39485;45.702;11.364;2023-06-24T05:27:49;22.50;76.40
53599;DHT22;39485;45.702;11.364;2023-06-24T05:30:15;22.60;76.90
53599;DHT22;39485;45.702;11.364;2023-06-24T05:32:40;22.60;76.50
53599;DHT22;39485;45.702;11.364;2023-06-24T05:35:07;22.60;76.70
53599;DHT22;39485;45.702;11.364;2023-06-24T05:37:32;22.60;76.80
53599;DHT22;39485;45.702;11.364;2023-06-24T05:39:58;22.70;77.20
53599;DHT22;39485;45.702;11.364;2023-06-24T05:42:27;22.70;77.50
53599;DHT22;39485;45.702;11.364;2023-06-24T05:44:52;22.80;77.70
53599;DHT22;39485;45.702;11.364;2023-06-24T05:47:18;22.90;78.70
53599;DHT22;39485;45.702;11.364;2023-06-24T05:49:44;23.00;78.90
53599;DHT22;39485;45.702;11.364;2023-06-24T05:52:11;23.00;76.80
53599;DHT22;39485;45.702;11.364;2023-06-24T05:54:37;23.10;75.20
53599;DHT22;39485;45.702;11.364;2023-06-24T05:57:02;23.20;73.40
53599;DHT22;39485;45.702;11.364;2023-06-24T05:59:32;23.30;74.30
53599;DHT22;39485;45.702;11.364;2023-06-24T06:01:57;23.60;73.80
53599;DHT22;39485;45.702;11.364;2023-06-24T06:04:23;23.70;73.20
53599;DHT22;39485;45.702;11.364;2023-06-24T06:06:49;23.80;73.60
53599;DHT22;39485;45.702;11.364;2023-06-24T06:09:15;24.00;74.10
53599;DHT22;39485;45.702;11.364;2023-06-24T06:11:40;24.10;71.80
53599;DHT22;39485;45.702;11.364;2023-06-24T06:14:07;24.20;71.70
53599;DHT22;39485;45.702;11.364;2023-06-24T06:16:32;24.20;71.60
53599;DHT22;39485;45.702;11.364;2023-06-24T06:18:58;24.40;71.60
53599;DHT22;39485;45.702;11.364;2023-06-24T06:21:24;24.60;69.60
53599;DHT22;39485;45.702;11.364;2023-06-24T06:23:50;24.70;69.80
53599;DHT22;39485;45.702;11.364;2023-06-24T06:26:16;24.90;69.20
53599;DHT22;39485;45.702;11.364;2023-06-24T06:28:41;25.10;69.80
53599;DHT22;39485;45.702;11.364;2023-06-24T06:31:07;25.30;67.80
53599;DHT22;39485;45.702;11.364;2023-06-24T06:33:33;25.50;66.80
53599;DHT22;39485;45.702;11.364;2023-06-24T06:35:58;25.60;65.60
53599;DHT22;39485;45.702;11.364;2023-06-24T06:38:24;25.70;65.70
53599;DHT22;39485;45.702;11.364;2023-06-24T06:40:50;25.90;66.20
53599;DHT22;39485;45.702;11.364;2023-06-24T06:43:16;26.20;66.60
53599;DHT22;39485;45.702;11.364;2023-06-24T06:45:41;26.40;65.90
53599;DHT22;39485;45.702;11.364;2023-06-24T06:48:07;26.60;65.00
53599;DHT22;39485;45.702;11.364;2023-06-24T06:50:34;26.70;64.10
53599;DHT22;39485;45.702;11.364;2023-06-24T06:53:00;26.90;63.80
53599;DHT22;39485;45.702;11.364;2023-06-24T06:55:26;27.10;64.10
53599;DHT22;39485;45.702;11.364;2023-06-24T06:57:52;27.20;63.30
53599;DHT22;39485;45.702;11.364;2023-06-24T07:00:18;27.20;62.70
53599;DHT22;39485;45.702;11.364;2023-06-24T07:02:44;27.20;62.10
53599;DHT22;39485;45.702;11.364;2023-06-24T07:05:10;27.30;61.90
53599;DHT22;39485;45.702;11.364;2023-06-24T07:07:39;27.20;61.80
53599;DHT22;39485;45.702;11.364;2023-06-24T07:10:06;27.30;61.50
53599;DHT22;39485;45.702;11.364;2023-06-24T07:12:32;27.30;61.40
53599;DHT22;39485;45.702;11.364;2023-06-24T07:14:57;27.30;61.40
53599;DHT22;39485;45.702;11.364;2023-06-24T07:17:23;27.30;61.40
53599;DHT22;39485;45.702;11.364;2023-06-24T07:19:49;27.20;61.60
53599;DHT22;39485;45.702;11.364;2023-06-24T07:22:14;27.20;61.80
53599;DHT22;39485;45.702;11.364;2023-06-24T07:24:41;27.20;61.90
53599;DHT22;39485;45.702;11.364;2023-06-24T07:27:07;27.20;62.40
53599;DHT22;39485;45.702;11.364;2023-06-24T07:29:33;27.10;63.10
53599;DHT22;39485;45.702;11.364;2023-06-24T07:31:59;27.10;64.00
53599;DHT22;39485;45.702;11.364;2023-06-24T07:34:24;27.10;64.60
53599;DHT22;39485;45.702;11.364;2023-06-24T07:36:50;27.00;64.70
53599;DHT22;39485;45.702;11.364;2023-06-24T07:39:16;26.90;65.60
53599;DHT22;39485;45.702;11.364;2023-06-24T07:41:42;26.90;66.10
53599;DHT22;39485;45.702;11.364;2023-06-24T07:44:08;26.90;66.00
53599;DHT22;39485;45.702;11.364;2023-06-24T07:46:34;26.90;66.00
53599;DHT22;39485;45.702;11.364;2023-06-24T07:49:00;26.80;66.00
53599;DHT22;39485;45.702;11.364;2023-06-24T07:51:26;26.80;66.30
53599;DHT22;39485;45.702;11.364;2023-06-24T07:53:52;26.80;66.70
53599;DHT22;39485;45.702;11.364;2023-06-24T07:56:18;27.00;66.60
53599;DHT22;39485;45.702;11.364;2023-06-24T07:58:44;27.00;66.30
53599;DHT22;39485;45.702;11.364;2023-06-24T08:01:09;27.00;66.10
53599;DHT22;39485;45.702;11.364;2023-06-24T08:03:35;27.10;66.10
53599;DHT22;39485;45.702;11.364;2023-06-24T08:06:04;27.10;66.20
53599;DHT22;39485;45.702;11.364;2023-06-24T08:08:29;27.20;65.20
53599;DHT22;39485;45.702;11.364;2023-06-24T08:10:55;27.30;65.40
53599;DHT22;39485;45.702;11.364;2023-06-24T08:13:21;27.30;65.20
53599;DHT22;39485;45.702;11.364;2023-06-24T08:15:47;27.40;64.50
53599;DHT22;39485;45.702;11.364;2023-06-24T08:18:12;27.50;64.20
53599;DHT22;39485;45.702;11.364;2023-06-24T08:20:38;27.50;63.70
53599;DHT22;39485;45.702;11.364;2023-06-24T08:23:04;27.50;63.70
53599;DHT22;39485;45.702;11.364;2023-06-24T08:25:29;27.60;63.30
53599;DHT22;39485;45.702;11.364;2023-06-24T08:27:55;27.60;63.10
53599;DHT22;39485;45.702;11.364;2023-06-24T08:30:21;27.60;62.90
53599;DHT22;39485;45.702;11.364;2023-06-24T08:32:47;27.70;62.10
53599;DHT22;39485;45.702;11.364;2023-06-24T08:35:13;27.70;61.80
53599;DHT22;39485;45.702;11.364;2023-06-24T08:37:39;27.70;61.70
53599;DHT22;39485;45.702;11.364;2023-06-24T08:40:05;27.60;61.00
53599;DHT22;39485;45.702;11.364;2023-06-24T08:42:31;27.60;60.60
53599;DHT22;39485;45.702;11.364;2023-06-24T08:44:57;27.60;62.50
53599;DHT22;39485;45.702;11.364;2023-06-24T08:47:24;27.70;62.70
53599;DHT22;39485;45.702;11.364;2023-06-24T08:49:55;27.70;62.10
53599;DHT22;39485;45.702;11.364;2023-06-24T08:52:26;27.80;62.30
53599;DHT22;39485;45.702;11.364;2023-06-24T08:54:56;27.80;61.70
53599;DHT22;39485;45.702;11.364;2023-06-24T08:57:24;27.80;61.20
53599;DHT22;39485;45.702;11.364;2023-06-24T08:59:49;27.90;62.60
53599;DHT22;39485;45.702;11.364;2023-06-24T09:02:15;28.00;62.30
53599;DHT22;39485;45.702;11.364;2023-06-24T09:04:41;28.00;62.50
53599;DHT22;39485;45.702;11.364;2023-06-24T09:07:07;28.10;62.50
53599;DHT22;39485;45.702;11.364;2023-06-24T09:09:33;28.20;62.20
53599;DHT22;39485;45.702;11.364;2023-06-24T09:12:11;28.20;61.80
53599;DHT22;39485;45.702;11.364;2023-06-24T09:14:37;28.20;61.90
53599;DHT22;39485;45.702;11.364;2023-06-24T09:17:03;28.30;61.50
53599;DHT22;39485;45.702;11.364;2023-06-24T09:19:29;28.30;62.30
53599;DHT22;39485;45.702;11.364;2023-06-24T09:22:03;28.40;61.70
53599;DHT22;39485;45.702;11.364;2023-06-24T09:24:36;28.50;61.60
53599;DHT22;39485;45.702;11.364;2023-06-24T09:27:03;28.50;60.80
53599;DHT22;39485;45.702;11.364;2023-06-24T09:29:34;28.50;61.50
53599;DHT22;39485;45.702;11.364;2023-06-24T09:32:00;28.60;60.80
53599;DHT22;39485;45.702;11.364;2023-06-24T09:34:29;28.60;60.90
53599;DHT22;39485;45.702;11.364;2023-06-24T09:36:56;28.60;61.10
53599;DHT22;39485;45.702;11.364;2023-06-24T09:39:22;28.70;60.70
53599;DHT22;39485;45.702;11.364;2023-06-24T09:41:57;28.70;61.10
53599;DHT22;39485;45.702;11.364;2023-06-24T09:44:24;28.70;61.10
53599;DHT22;39485;45.702;11.364;2023-06-24T09:46:50;28.80;61.30
53599;DHT22;39485;45.702;11.364;2023-06-24T09:49:16;28.90;61.30
53599;DHT22;39485;45.702;11.364;2023-06-24T09:51:46;29.00;61.50
53599;DHT22;39485;45.702;11.364;2023-06-24T09:54:14;29.10;61.00
53599;DHT22;39485;45.702;11.364;2023-06-24T09:56:43;29.10;60.50
53599;DHT22;39485;45.702;11.364;2023-06-24T09:59:12;29.10;60.70
53599;DHT22;39485;45.702;11.364;2023-06-24T10:01:41;29.20;60.70
53599;DHT22;39485;45.702;11.364;2023-06-24T10:04:07;29.20;61.10
53599;DHT22;39485;45.702;11.364;2023-06-24T10:06:34;29.30;61.10
53599;DHT22;39485;45.702;11.364;2023-06-24T10:09:00;29.30;60.60
53599;DHT22;39485;45.702;11.364;2023-06-24T10:11:26;29.20;60.70
53599;DHT22;39485;45.702;11.364;2023-06-24T10:13:53;29.20;61.00
53599;DHT22;39485;45.702;11.364;2023-06-24T10:16:19;29.30;61.20
53599;DHT22;39485;45.702;11.364;2023-06-24T10:18:45;29.30;60.90
53599;DHT22;39485;45.702;11.364;2023-06-24T10:21:11;29.20;60.80
53599;DHT22;39485;45.702;11.364;2023-06-24T10:26:22;29.20;60.80
53599;DHT22;39485;45.702;11.364;2023-06-24T10:29:08;29.20;61.30
53599;DHT22;39485;45.702;11.364;2023-06-24T10:34:32;29.40;61.60
53599;DHT22;39485;45.702;11.364;2023-06-24T10:37:19;29.40;61.40
53599;DHT22;39485;45.702;11.364;2023-06-24T10:39:55;29.40;61.80
53599;DHT22;39485;45.702;11.364;2023-06-24T10:42:36;29.40;61.20
53599;DHT22;39485;45.702;11.364;2023-06-24T10:45:12;29.30;60.80
53599;DHT22;39485;45.702;11.364;2023-06-24T10:47:43;29.40;61.70
53599;DHT22;39485;45.702;11.364;2023-06-24T10:50:11;29.40;61.60
53599;DHT22;39485;45.702;11.364;2023-06-24T10:52:41;29.30;61.50
53599;DHT22;39485;45.702;11.364;2023-06-24T10:55:08;29.40;62.00
53599;DHT22;39485;45.702;11.364;2023-06-24T10:57:39;29.40;61.50
53599;DHT22;39485;45.702;11.364;2023-06-24T11:00:05;29.40;61.40
53599;DHT22;39485;45.702;11.364;2023-06-24T11:02:31;29.30;61.10
53599;DHT22;39485;45.702;11.364;2023-06-24T11:04:59;29.30;61.30
53599;DHT22;39485;45.702;11.364;2023-06-24T11:07:30;29.10;60.90
53599;DHT22;39485;45.702;11.364;2023-06-24T11:09:58;29.10;61.20
53599;DHT22;39485;45.702;11.364;2023-06-24T11:12:26;29.00;61.90
53599;DHT22;39485;45.702;11.364;2023-06-24T11:15:00;29.10;61.90
53599;DHT22;39485;45.702;11.364;2023-06-24T11:17:27;29.20;62.20
53599;DHT22;39485;45.702;11.364;2023-06-24T11:19:54;29.20;62.10
53599;DHT22;39485;45.702;11.364;2023-06-24T11:22:20;29.30;61.70
53599;DHT22;39485;45.702;11.364;2023-06-24T11:24:45;29.40;61.70
53599;DHT22;39485;45.702;11.364;2023-06-24T11:27:11;29.50;61.50
53599;DHT22;39485;45.702;11.364;2023-06-24T11:29:37;29.50;61.00
53599;DHT22;39485;45.702;11.364;2023-06-24T11:32:06;29.60;60.70
53599;DHT22;39485;45.702;11.364;2023-06-24T11:34:32;29.60;61.30
53599;DHT22;39485;45.702;11.364;2023-06-24T11:36:58;29.60;60.00
53599;DHT22;39485;45.702;11.364;2023-06-24T11:39:27;29.60;60.30
53599;DHT22;39485;45.702;11.364;2023-06-24T11:41:54;29.70;61.10
53599;DHT22;39485;45.702;11.364;2023-06-24T11:44:24;29.80;60.20
53599;DHT22;39485;45.702;11.364;2023-06-24T11:46:49;29.80;59.60
53599;DHT22;39485;45.702;11.364;2023-06-24T11:49:16;29.80;59.70
53599;DHT22;39485;45.702;11.364;2023-06-24T11:51:49;29.90;60.10
53599;DHT22;39485;45.702;11.364;2023-06-24T11:54:19;29.90;60.40
53599;DHT22;39485;45.702;11.364;2023-06-24T11:56:50;30.00;60.20
53599;DHT22;39485;45.702;11.364;2023-06-24T11:59:26;30.00;59.10
53599;DHT22;39485;45.702;11.364;2023-06-24T12:01:53;29.90;58.80
53599;DHT22;39485;45.702;11.364;2023-06-24T12:04:19;29.80;58.90
53599;DHT22;39485;45.702;11.364;2023-06-24T12:06:45;29.70;59.20
53599;DHT22;39485;45.702;11.364;2023-06-24T12:09:12;29.70;59.60
53599;DHT22;39485;45.702;11.364;2023-06-24T12:11:38;29.70;59.30
53599;DHT22;39485;45.702;11.364;2023-06-24T12:14:05;29.70;59.70
53599;DHT22;39485;45.702;11.364;2023-06-24T12:16:31;29.70;59.20
53599;DHT22;39485;45.702;11.364;2023-06-24T12:18:56;29.60;59.00
53599;DHT22;39485;45.702;11.364;2023-06-24T12:21:22;29.50;59.50
53599;DHT22;39485;45.702;11.364;2023-06-24T12:23:48;29.40;59.20
53599;DHT22;39485;45.702;11.364;2023-06-24T12:26:13;29.40;59.30
53599;DHT22;39485;45.702;11.364;2023-06-24T12:28:39;29.40;59.40
53599;DHT22;39485;45.702;11.364;2023-06-24T12:31:05;29.40;59.10
53599;DHT22;39485;45.702;11.364;2023-06-24T12:33:31;29.40;59.80
53599;DHT22;39485;45.702;11.364;2023-06-24T12:35:57;29.40;59.40
53599;DHT22;39485;45.702;11.364;2023-06-24T12:38:22;29.40;59.50
53599;DHT22;39485;45.702;11.364;2023-06-24T12:40:48;29.50;59.90
53599;DHT22;39485;45.702;11.364;2023-06-24T12:43:14;29.50;59.30
53599;DHT22;39485;45.702;11.364;2023-06-24T12:45:43;29.60;59.50
53599;DHT22;39485;45.702;11.364;2023-06-24T12:48:09;29.60;59.70
53599;DHT22;39485;45.702;11.364;2023-06-24T12:50:35;29.60;60.00
53599;DHT22;39485;45.702;11.364;2023-06-24T12:53:01;29.60;59.60
53599;DHT22;39485;45.702;11.364;2023-06-24T12:55:27;29.60;59.80
53599;DHT22;39485;45.702;11.364;2023-06-24T12:57:53;29.60;60.00
53599;DHT22;39485;45.702;11.364;2023-06-24T13:00:22;29.70;60.00
53599;DHT22;39485;45.702;11.364;2023-06-24T13:02:49;29.60;59.60
53599;DHT22;39485;45.702;11.364;2023-06-24T13:05:15;29.50;59.90
53599;DHT22;39485;45.702;11.364;2023-06-24T13:07:41;29.50;61.20
53599;DHT22;39485;45.702;11.364;2023-06-24T13:10:07;29.60;60.90
53599;DHT22;39485;45.702;11.364;2023-06-24T13:12:33;29.70;60.50
53599;DHT22;39485;45.702;11.364;2023-06-24T13:14:59;29.60;60.10
53599;DHT22;39485;45.702;11.364;2023-06-24T13:17:25;29.60;60.20
53599;DHT22;39485;45.702;11.364;2023-06-24T13:19:51;29.70;60.30
53599;DHT22;39485;45.702;11.364;2023-06-24T13:22:17;29.70;60.30
53599;DHT22;39485;45.702;11.364;2023-06-24T13:24:44;29.80;60.40
53599;DHT22;39485;45.702;11.364;2023-06-24T13:27:10;29.80;60.50
53599;DHT22;39485;45.702;11.364;2023-06-24T13:29:36;29.90;60.70
53599;DHT22;39485;45.702;11.364;2023-06-24T13:32:01;29.90;60.60
53599;DHT22;39485;45.702;11.364;2023-06-24T13:34:27;29.90;61.10
53599;DHT22;39485;45.702;11.364;2023-06-24T13:36:53;29.90;60.80
53599;DHT22;39485;45.702;11.364;2023-06-24T13:39:19;30.00;60.40
53599;DHT22;39485;45.702;11.364;2023-06-24T13:41:47;29.90;60.20
53599;DHT22;39485;45.702;11.364;2023-06-24T13:44:13;29.90;60.80
53599;DHT22;39485;45.702;11.364;2023-06-24T13:46:39;29.90;60.60
53599;DHT22;39485;45.702;11.364;2023-06-24T13:49:04;29.90;60.10
53599;DHT22;39485;45.702;11.364;2023-06-24T13:51:30;29.90;60.40
53599;DHT22;39485;45.702;11.364;2023-06-24T13:53:56;29.90;60.40
53599;DHT22;39485;45.702;11.364;2023-06-24T13:56:23;29.90;60.20
53599;DHT22;39485;45.702;11.364;2023-06-24T13:58:52;29.90;60.90
53599;DHT22;39485;45.702;11.364;2023-06-24T14:01:19;29.90;60.90
53599;DHT22;39485;45.702;11.364;2023-06-24T14:03:45;30.00;60.60
53599;DHT22;39485;45.702;11.364;2023-06-24T14:06:12;30.00;60.60
53599;DHT22;39485;45.702;11.364;2023-06-24T14:08:39;30.00;59.60
53599;DHT22;39485;45.702;11.364;2023-06-24T14:11:04;29.90;59.80
53599;DHT22;39485;45.702;11.364;2023-06-24T14:13:30;29.90;58.90
53599;DHT22;39485;45.702;11.364;2023-06-24T14:15:56;29.80;59.30
53599;DHT22;39485;45.702;11.364;2023-06-24T14:18:22;29.70;59.10
53599;DHT22;39485;45.702;11.364;2023-06-24T14:20:49;29.60;59.40
53599;DHT22;39485;45.702;11.364;2023-06-24T14:23:14;29.60;59.70
53599;DHT22;39485;45.702;11.364;2023-06-24T14:25:40;29.50;59.80
53599;DHT22;39485;45.702;11.364;2023-06-24T14:28:06;29.40;59.90
53599;DHT22;39485;45.702;11.364;2023-06-24T14:30:32;29.40;60.40
53599;DHT22;39485;45.702;11.364;2023-06-24T14:32:58;29.40;60.40
53599;DHT22;39485;45.702;11.364;2023-06-24T14:35:24;29.40;60.70
53599;DHT22;39485;45.702;11.364;2023-06-24T14:37:50;29.40;60.30
53599;DHT22;39485;45.702;11.364;2023-06-24T14:40:16;29.40;60.10
53599;DHT22;39485;45.702;11.364;2023-06-24T14:42:42;29.40;60.20
53599;DHT22;39485;45.702;11.364;2023-06-24T14:45:08;29.40;60.20
53599;DHT22;39485;45.702;11.364;2023-06-24T14:47:33;29.40;60.30
53599;DHT22;39485;45.702;11.364;2023-06-24T14:49:59;29.50;60.00
53599;DHT22;39485;45.702;11.364;2023-06-24T14:52:25;29.50;60.20
53599;DHT22;39485;45.702;11.364;2023-06-24T14:54:50;29.50;60.20
53599;DHT22;39485;45.702;11.364;2023-06-24T14:57:16;29.60;59.90
53599;DHT22;39485;45.702;11.364;2023-06-24T14:59:42;29.60;59.60
53599;DHT22;39485;45.702;11.364;2023-06-24T15:02:08;29.60;59.90
53599;DHT22;39485;45.702;11.364;2023-06-24T15:04:35;29.50;60.00
53599;DHT22;39485;45.702;11.364;2023-06-24T15:07:01;29.50;60.60
53599;DHT22;39485;45.702;11.364;2023-06-24T15:09:27;29.50;60.00
53599;DHT22;39485;45.702;11.364;2023-06-24T15:11:52;29.50;60.00
53599;DHT22;39485;45.702;11.364;2023-06-24T15:14:18;29.40;59.90
53599;DHT22;39485;45.702;11.364;2023-06-24T15:16:44;29.40;60.20
53599;DHT22;39485;45.702;11.364;2023-06-24T15:19:09;29.40;60.50
53599;DHT22;39485;45.702;11.364;2023-06-24T15:21:35;29.50;61.10
53599;DHT22;39485;45.702;11.364;2023-06-24T15:24:01;29.50;60.80
53599;DHT22;39485;45.702;11.364;2023-06-24T15:26:27;29.50;60.20
53599;DHT22;39485;45.702;11.364;2023-06-24T15:28:52;29.40;61.40
53599;DHT22;39485;45.702;11.364;2023-06-24T15:31:19;29.40;61.00